createdAt,value
2018-08-12T00:04:55.006Z,11.50
2018-08-12T00:07:23.486Z,11.57
2018-08-12T00:09:51.896Z,11.53
2018-08-12T00:12:20.399Z,11.41
2018-08-12T00:14:48.833Z,11.40
2018-08-12T00:17:17.260Z,11.41
2018-08-12T00:19:45.694Z,11.52
2018-08-12T00:22:14.151Z,11.54
2018-08-12T00:24:42.604Z,11.49
2018-08-12T00:27:11.012Z,11.42
2018-08-12T00:29:39.445Z,11.32
2018-08-12T00:32:07.875Z,11.25
2018-08-12T00:34:36.403Z,11.27
2018-08-12T00:37:05.711Z,11.32
2018-08-12T00:39:34.592Z,11.37
2018-08-12T00:42:03.024Z,11.37
2018-08-12T00:44:31.622Z,11.25
2018-08-12T00:47:00.072Z,11.22
2018-08-12T00:49:28.559Z,11.27
2018-08-12T00:51:57.021Z,11.12
2018-08-12T00:54:25.445Z,11.14
2018-08-12T00:56:54.015Z,11.08
2018-08-12T00:59:22.417Z,11.09
2018-08-12T01:01:50.972Z,11.13
2018-08-12T01:04:19.404Z,11.15
2018-08-12T01:06:47.883Z,11.11
2018-08-12T01:09:16.354Z,11.01
2018-08-12T01:11:44.817Z,11.09
2018-08-12T01:14:13.280Z,11.14
2018-08-12T01:16:41.723Z,11.05
2018-08-12T01:19:10.188Z,11.05
2018-08-12T01:21:39.664Z,11.04
2018-08-12T01:24:08.111Z,11.20
2018-08-12T01:26:36.536Z,11.18
2018-08-12T01:29:05.429Z,11.11
2018-08-12T01:31:33.900Z,11.03
2018-08-12T01:34:02.342Z,10.96
2018-08-12T01:36:30.779Z,10.93
2018-08-12T01:38:59.337Z,10.89
2018-08-12T01:41:27.784Z,10.88
2018-08-12T01:43:56.211Z,10.95
2018-08-12T01:46:24.690Z,10.94
2018-08-12T01:48:53.268Z,10.87
2018-08-12T01:51:21.687Z,10.85
2018-08-12T01:53:50.127Z,10.88
2018-08-12T01:56:18.599Z,10.86
2018-08-12T01:58:47.023Z,10.83
2018-08-12T02:01:15.509Z,10.79
2018-08-12T02:03:43.940Z,10.79
2018-08-12T02:06:12.391Z,10.76
2018-08-12T02:08:40.854Z,10.74
2018-08-12T02:12:12.855Z,10.76
2018-08-12T02:14:41.277Z,10.73
2018-08-12T02:17:10.065Z,10.69
2018-08-12T02:19:38.532Z,10.70
2018-08-12T02:22:07.064Z,10.69
2018-08-12T02:24:35.573Z,10.73
2018-08-12T02:27:03.985Z,10.73
2018-08-12T02:29:32.429Z,10.80
2018-08-12T02:32:00.875Z,10.83
2018-08-12T02:34:29.317Z,10.84
2018-08-12T02:36:57.722Z,10.68
2018-08-12T02:39:26.152Z,10.70
2018-08-12T02:41:54.558Z,10.68
2018-08-12T02:44:22.977Z,10.74
2018-08-12T02:46:51.413Z,10.61
2018-08-12T02:49:19.838Z,10.61
2018-08-12T02:51:48.373Z,10.54
2018-08-12T02:54:16.776Z,10.56
2018-08-12T02:56:45.212Z,10.61
2018-08-12T02:59:13.656Z,10.55
2018-08-12T03:01:42.127Z,10.54
2018-08-12T03:04:10.683Z,10.58
2018-08-12T03:06:39.121Z,10.59
2018-08-12T03:09:10.356Z,10.56
2018-08-12T03:11:38.826Z,10.53
2018-08-12T03:14:07.853Z,10.56
2018-08-12T03:16:36.311Z,10.53
2018-08-12T03:19:04.813Z,10.55
2018-08-12T03:21:33.231Z,10.50
2018-08-12T03:24:01.673Z,10.62
2018-08-12T03:26:30.103Z,10.60
2018-08-12T03:28:58.536Z,10.52
2018-08-12T03:31:26.961Z,10.49
2018-08-12T03:33:55.635Z,10.48
2018-08-12T03:36:24.173Z,10.59
2018-08-12T03:38:52.767Z,10.41
2018-08-12T03:41:21.213Z,10.41
2018-08-12T03:43:49.897Z,10.36
2018-08-12T03:46:18.358Z,10.45
2018-08-12T03:48:46.849Z,10.50
2018-08-12T03:51:15.235Z,10.41
2018-08-12T03:53:43.647Z,10.31
2018-08-12T03:56:12.123Z,10.26
2018-08-12T03:58:40.557Z,10.18
2018-08-12T04:01:08.992Z,10.16
2018-08-12T04:03:37.445Z,10.20
2018-08-12T04:06:05.884Z,10.13
2018-08-12T04:08:34.378Z,10.23
2018-08-12T04:11:02.807Z,10.18
2018-08-12T04:13:31.254Z,10.23
2018-08-12T04:15:59.771Z,10.29
2018-08-12T04:18:28.212Z,10.30
2018-08-12T04:20:56.632Z,10.28
2018-08-12T04:23:25.084Z,10.20
2018-08-12T04:25:53.527Z,10.27
2018-08-12T04:28:21.974Z,10.31
2018-08-12T04:30:50.449Z,10.35
2018-08-12T04:33:18.878Z,10.28
2018-08-12T04:35:47.296Z,10.25
2018-08-12T04:38:15.745Z,10.42
2018-08-12T04:40:44.161Z,10.44
2018-08-12T04:43:12.578Z,10.57
2018-08-12T04:45:41.012Z,10.69
2018-08-12T04:48:09.416Z,10.74
2018-08-12T04:50:37.852Z,10.87
2018-08-12T04:53:06.300Z,10.95
2018-08-12T04:55:34.721Z,10.95
2018-08-12T04:58:03.555Z,11.01
2018-08-12T05:00:31.971Z,11.11
2018-08-12T05:03:00.457Z,11.17
2018-08-12T05:05:28.911Z,11.38
2018-08-12T05:07:57.334Z,11.47
2018-08-12T05:10:25.759Z,11.58
2018-08-12T05:12:54.230Z,11.73
2018-08-12T05:15:22.660Z,11.83
2018-08-12T05:17:51.146Z,11.97
2018-08-12T05:20:19.597Z,12.02
2018-08-12T05:22:48.012Z,11.97
2018-08-12T05:25:16.535Z,12.02
2018-08-12T05:27:44.930Z,12.06
2018-08-12T05:30:13.371Z,12.12
2018-08-12T05:32:42.487Z,12.24
2018-08-12T05:35:12.865Z,12.35
2018-08-12T05:37:41.283Z,12.41
2018-08-12T05:40:11.181Z,12.55
2018-08-12T05:42:39.598Z,12.57
2018-08-12T05:45:09.151Z,12.65
2018-08-12T05:47:37.937Z,12.73
2018-08-12T05:50:07.055Z,12.78
2018-08-12T05:52:35.505Z,12.85
2018-08-12T05:55:04.247Z,12.91
2018-08-12T05:57:32.708Z,13.03
2018-08-12T06:00:01.442Z,13.21
2018-08-12T06:02:30.962Z,13.28
2018-08-12T06:04:59.797Z,13.27
2018-08-12T06:07:28.314Z,13.39
2018-08-12T06:09:56.793Z,13.48
2018-08-12T06:12:25.748Z,13.52
2018-08-12T06:14:54.220Z,13.58
2018-08-12T06:17:22.776Z,13.51
2018-08-12T06:19:51.299Z,13.54
2018-08-12T06:22:19.785Z,13.50
2018-08-12T06:24:48.266Z,13.50
2018-08-12T06:27:16.737Z,13.53
2018-08-12T06:29:45.305Z,13.57
2018-08-12T06:32:13.808Z,13.66
2018-08-12T06:34:42.320Z,13.70
2018-08-12T06:37:10.864Z,13.77
2018-08-12T06:39:39.327Z,13.85
2018-08-12T06:42:07.931Z,13.87
2018-08-12T06:44:36.511Z,13.92
2018-08-12T06:47:05.092Z,14.09
2018-08-12T06:49:33.532Z,14.15
2018-08-12T06:52:02.072Z,14.22
2018-08-12T06:54:30.557Z,14.26
2018-08-12T06:56:59.107Z,14.36
2018-08-12T06:59:27.644Z,14.45
2018-08-12T07:01:56.256Z,14.52
2018-08-12T07:04:24.805Z,14.64
2018-08-12T07:06:53.325Z,14.75
2018-08-12T07:09:21.845Z,14.82
2018-08-12T07:11:50.356Z,14.99
2018-08-12T07:14:18.870Z,15.14
2018-08-12T07:16:47.288Z,15.26
2018-08-12T07:19:15.763Z,15.35
2018-08-12T07:21:44.240Z,15.49
2018-08-12T07:24:12.663Z,15.61
2018-08-12T07:26:41.157Z,15.70
2018-08-12T07:29:09.929Z,15.86
2018-08-12T07:31:38.498Z,15.99
2018-08-12T07:34:07.049Z,16.15
2018-08-12T07:36:35.601Z,16.34
2018-08-12T07:39:05.696Z,16.59
2018-08-12T07:41:34.205Z,16.63
2018-08-12T07:44:02.776Z,16.65
2018-08-12T07:46:31.666Z,16.70
2018-08-12T07:49:00.240Z,16.59
2018-08-12T07:51:28.771Z,16.62
2018-08-12T07:53:57.320Z,16.76
2018-08-12T07:56:25.908Z,16.92
2018-08-12T07:58:54.488Z,17.10
2018-08-12T08:01:23.019Z,17.14
2018-08-12T08:03:51.668Z,17.29
2018-08-12T08:06:20.211Z,17.39
2018-08-12T08:08:48.732Z,17.49
2018-08-12T08:11:17.207Z,17.56
2018-08-12T08:13:45.660Z,17.77
2018-08-12T08:16:14.818Z,17.84
2018-08-12T08:18:43.381Z,18.03
2018-08-12T08:21:11.869Z,18.10
2018-08-12T08:23:40.351Z,18.18
2018-08-12T08:26:08.872Z,18.27
2018-08-12T08:28:37.536Z,18.38
2018-08-12T08:31:06.286Z,18.44
2018-08-12T08:33:34.832Z,18.50
2018-08-12T08:36:03.564Z,18.53
2018-08-12T08:38:32.093Z,18.56
2018-08-12T08:41:00.686Z,18.71
2018-08-12T08:43:29.222Z,18.83
2018-08-12T08:45:57.794Z,18.98
2018-08-12T08:48:26.336Z,19.14
2018-08-12T08:50:54.785Z,19.29
2018-08-12T08:53:23.260Z,19.34
2018-08-12T08:55:51.882Z,19.30
2018-08-12T08:58:20.293Z,19.29
2018-08-12T09:00:48.755Z,19.42
2018-08-12T09:03:17.268Z,19.57
2018-08-12T09:05:45.892Z,19.72
2018-08-12T09:08:15.115Z,19.79
2018-08-12T09:10:43.423Z,19.96
2018-08-12T09:13:11.911Z,20.16
2018-08-12T09:15:40.593Z,20.20
2018-08-12T09:18:09.136Z,20.27
2018-08-12T09:20:37.593Z,20.40
2018-08-12T09:23:06.082Z,20.54
2018-08-12T09:25:34.620Z,20.76
2018-08-12T09:28:03.067Z,20.90
2018-08-12T09:30:31.516Z,21.01
2018-08-12T09:33:00.099Z,21.09
2018-08-12T09:35:28.558Z,21.23
2018-08-12T09:37:57.062Z,21.24
2018-08-12T09:40:25.685Z,21.09
2018-08-12T09:42:54.155Z,20.94
2018-08-12T09:45:22.772Z,20.92
2018-08-12T09:47:51.298Z,20.96
2018-08-12T09:50:20.488Z,20.98
2018-08-12T09:52:50.203Z,20.90
2018-08-12T09:55:19.443Z,21.04
2018-08-12T09:57:47.931Z,21.22
2018-08-12T10:00:22.766Z,21.33
2018-08-12T10:02:52.724Z,21.52
2018-08-12T10:05:21.385Z,21.81
2018-08-12T10:07:49.879Z,21.88
2018-08-12T10:10:18.505Z,21.72
2018-08-12T10:12:47.249Z,21.49
2018-08-12T10:15:16.344Z,21.56
2018-08-12T10:17:48.005Z,21.63
2018-08-12T10:20:16.560Z,21.80
2018-08-12T10:22:45.187Z,21.74
2018-08-12T10:25:13.717Z,21.61
2018-08-12T10:27:42.196Z,21.53
2018-08-12T10:30:12.536Z,21.54
2018-08-12T10:32:41.012Z,21.40
2018-08-12T10:35:11.941Z,21.57
2018-08-12T10:37:40.807Z,21.59
2018-08-12T10:40:17.886Z,21.57
2018-08-12T10:42:47.364Z,21.54
2018-08-12T10:45:15.920Z,21.52
2018-08-12T10:47:44.663Z,21.50
2018-08-12T10:50:15.548Z,21.47
2018-08-12T10:52:45.054Z,21.43
2018-08-12T10:55:14.792Z,21.41
2018-08-12T10:57:43.318Z,21.52
2018-08-12T11:00:15.999Z,21.55
2018-08-12T11:02:45.028Z,21.49
2018-08-12T11:05:14.349Z,21.21
2018-08-12T11:07:43.089Z,21.18
2018-08-12T11:10:12.408Z,21.15
2018-08-12T11:12:41.078Z,21.18
2018-08-12T11:15:10.212Z,21.18
2018-08-12T11:17:39.232Z,21.24
2018-08-12T11:20:08.196Z,21.44
2018-08-12T11:22:36.740Z,21.62
2018-08-12T11:25:05.797Z,21.58
2018-08-12T11:27:34.764Z,21.75
2018-08-12T11:30:03.328Z,21.74
2018-08-12T11:32:31.752Z,21.92
2018-08-12T11:35:00.268Z,21.96
2018-08-12T11:37:28.721Z,22.05
2018-08-12T11:39:57.180Z,22.08
2018-08-12T11:42:25.717Z,22.32
2018-08-12T11:44:54.207Z,22.46
2018-08-12T11:47:22.739Z,22.42
2018-08-12T11:49:51.244Z,22.43
2018-08-12T11:52:19.728Z,22.41
2018-08-12T11:54:48.234Z,22.45
2018-08-12T11:57:16.721Z,22.55
2018-08-12T11:59:45.229Z,22.53
2018-08-12T12:02:13.846Z,22.56
2018-08-12T12:04:42.213Z,22.54
2018-08-12T12:07:10.773Z,22.62
2018-08-12T12:09:39.276Z,22.60
2018-08-12T12:12:07.784Z,22.34
2018-08-12T12:14:36.291Z,22.27
2018-08-12T12:17:04.902Z,22.37
2018-08-12T12:19:33.531Z,22.36
2018-08-12T12:22:01.992Z,22.28
2018-08-12T12:24:30.458Z,22.29
2018-08-12T12:26:59.047Z,22.29
2018-08-12T12:29:27.543Z,22.44
2018-08-12T12:31:56.441Z,22.48
2018-08-12T12:34:24.953Z,22.47
2018-08-12T12:36:53.384Z,22.35
2018-08-12T12:39:21.919Z,22.31
2018-08-12T12:41:50.362Z,22.38
2018-08-12T12:44:18.804Z,22.28
2018-08-12T12:46:47.291Z,22.19
2018-08-12T12:49:15.868Z,22.22
2018-08-12T12:51:44.304Z,22.38
2018-08-12T12:54:12.753Z,22.46
2018-08-12T12:56:41.447Z,22.47
2018-08-12T12:59:09.916Z,22.45
2018-08-12T13:01:38.385Z,22.42
2018-08-12T13:04:07.287Z,22.31
2018-08-12T13:06:35.877Z,22.36
2018-08-12T13:09:06.495Z,22.36
2018-08-12T13:11:35.317Z,22.49
2018-08-12T13:14:04.389Z,22.76
2018-08-12T13:16:32.885Z,22.97
2018-08-12T13:19:01.373Z,23.05
2018-08-12T13:21:29.828Z,23.15
2018-08-12T13:23:58.363Z,23.38
2018-08-12T13:26:26.891Z,23.52
2018-08-12T13:28:55.444Z,23.71
2018-08-12T13:31:23.967Z,23.94
2018-08-12T13:33:52.595Z,24.22
2018-08-12T13:36:22.366Z,24.59
2018-08-12T13:38:50.963Z,24.74
2018-08-12T13:41:19.469Z,24.72
2018-08-12T13:43:48.033Z,24.83
2018-08-12T13:46:16.487Z,24.83
2018-08-12T13:48:45.442Z,24.91
2018-08-12T13:51:13.881Z,24.67
2018-08-12T13:53:42.303Z,24.42
2018-08-12T13:56:10.868Z,24.38
2018-08-12T13:58:39.580Z,24.36
2018-08-12T14:01:16.537Z,24.51
2018-08-12T14:03:45.126Z,24.52
2018-08-12T14:06:13.669Z,24.67
2018-08-12T14:08:42.153Z,24.67
2018-08-12T14:11:10.726Z,24.68
2018-08-12T14:13:39.302Z,24.66
2018-08-12T14:16:07.788Z,24.60
2018-08-12T14:18:36.344Z,24.68
2018-08-12T14:21:05.017Z,24.77
2018-08-12T14:23:34.341Z,24.86
2018-08-12T14:26:03.608Z,24.73
2018-08-12T14:28:32.236Z,24.80
2018-08-12T14:31:10.713Z,24.78
2018-08-12T14:33:39.654Z,24.67
2018-08-12T14:36:08.152Z,24.81
2018-08-12T14:38:36.617Z,24.73
2018-08-12T14:41:05.117Z,24.70
2018-08-12T14:43:33.705Z,24.92
2018-08-12T14:46:02.152Z,25.20
2018-08-12T14:48:30.637Z,25.16
2018-08-12T14:50:59.073Z,25.11
2018-08-12T14:53:27.911Z,25.22
2018-08-12T14:55:56.338Z,25.10
2018-08-12T14:58:24.769Z,24.88
2018-08-12T15:00:53.232Z,24.74
2018-08-12T15:03:21.669Z,24.93
2018-08-12T15:05:50.200Z,24.84
2018-08-12T15:08:18.642Z,24.89
2018-08-12T15:10:47.097Z,25.06
2018-08-12T15:13:15.540Z,25.19
2018-08-12T15:15:44.012Z,25.07
2018-08-12T15:18:12.448Z,24.73
2018-08-12T15:20:40.892Z,24.72
2018-08-12T15:23:09.332Z,24.80
2018-08-12T15:25:37.784Z,24.93
2018-08-12T15:28:06.239Z,24.92
2018-08-12T15:30:34.678Z,24.94
2018-08-12T15:33:03.122Z,24.97
2018-08-12T15:35:31.524Z,24.81
2018-08-12T15:37:59.968Z,24.83
2018-08-12T15:40:28.403Z,24.89
2018-08-12T15:42:56.849Z,25.13
2018-08-12T15:45:25.292Z,25.01
2018-08-12T15:47:53.736Z,24.93
2018-08-12T15:50:22.184Z,25.01
2018-08-12T15:52:50.601Z,25.01
2018-08-12T15:55:19.025Z,24.97
2018-08-12T15:57:47.436Z,25.00
2018-08-12T16:00:17.986Z,25.13
2018-08-12T16:02:46.664Z,25.08
2018-08-12T16:05:15.165Z,25.22
2018-08-12T16:07:44.362Z,25.10
2018-08-12T16:10:15.254Z,25.03
2018-08-12T16:12:43.788Z,25.02
2018-08-12T16:15:13.033Z,25.09
2018-08-12T16:17:42.169Z,25.29
2018-08-12T16:20:11.225Z,25.23
2018-08-12T16:22:39.661Z,25.37
2018-08-12T16:25:10.900Z,25.18
2018-08-12T16:27:39.452Z,25.10
2018-08-12T16:30:09.225Z,24.97
2018-08-12T16:32:44.097Z,25.06
2018-08-12T16:35:13.799Z,25.09
2018-08-12T16:37:43.079Z,25.09
2018-08-12T16:40:13.328Z,24.94
2018-08-12T16:42:41.884Z,24.86
2018-08-12T16:45:12.012Z,25.09
2018-08-12T16:47:40.448Z,25.01
2018-08-12T16:50:09.888Z,24.92
2018-08-12T16:52:38.691Z,24.81
2018-08-12T16:55:09.328Z,24.75
2018-08-12T16:57:37.799Z,24.84
2018-08-12T17:00:11.712Z,24.81
2018-08-12T17:02:40.168Z,24.73
2018-08-12T17:05:11.372Z,24.77
2018-08-12T17:07:40.009Z,24.72
2018-08-12T17:10:09.653Z,24.56
2018-08-12T17:12:38.147Z,24.59
2018-08-12T17:15:08.183Z,24.56
2018-08-12T17:17:36.686Z,24.52
2018-08-12T17:20:07.282Z,24.53
2018-08-12T17:22:35.849Z,24.43
2018-08-12T17:25:05.323Z,24.38
2018-08-12T17:27:34.068Z,24.42
2018-08-12T17:30:02.754Z,24.41
2018-08-12T17:32:32.213Z,24.38
2018-08-12T17:35:01.220Z,24.33
2018-08-12T17:37:30.522Z,24.30
2018-08-12T17:39:59.033Z,24.26
2018-08-12T17:42:27.903Z,24.18
2018-08-12T17:44:56.363Z,24.11
2018-08-12T17:47:24.835Z,24.00
2018-08-12T17:49:53.368Z,23.87
2018-08-12T17:52:21.826Z,23.80
2018-08-12T17:54:50.360Z,23.59
2018-08-12T17:57:18.799Z,23.49
2018-08-12T17:59:47.224Z,23.37
2018-08-12T18:02:15.752Z,23.26
2018-08-12T18:04:44.288Z,23.12
2018-08-12T18:07:12.841Z,23.00
2018-08-12T18:09:41.316Z,22.82
2018-08-12T18:12:09.872Z,22.73
2018-08-12T18:14:38.371Z,22.62
2018-08-12T18:17:06.910Z,22.55
2018-08-12T18:19:35.695Z,22.44
2018-08-12T18:22:04.284Z,22.34
2018-08-12T18:24:32.744Z,22.25
2018-08-12T18:27:01.415Z,22.14
2018-08-12T18:29:29.851Z,22.07
2018-08-12T18:31:58.340Z,22.04
2018-08-12T18:34:26.779Z,21.98
2018-08-12T18:36:55.321Z,21.88
2018-08-12T18:39:23.978Z,21.80
2018-08-12T18:41:52.546Z,21.66
2018-08-12T18:44:21.001Z,21.55
2018-08-12T18:46:49.454Z,21.48
2018-08-12T18:49:18.029Z,21.47
2018-08-12T18:51:46.510Z,21.49
2018-08-12T18:54:14.990Z,21.42
2018-08-12T18:56:43.509Z,21.33
2018-08-12T18:59:11.972Z,21.29
2018-08-12T19:01:40.540Z,21.24
2018-08-12T19:04:09.052Z,21.18
2018-08-12T19:06:37.520Z,21.09
2018-08-12T19:09:09.011Z,20.94
2018-08-12T19:11:37.551Z,20.86
2018-08-12T19:14:06.393Z,20.78
2018-08-12T19:16:34.895Z,20.74
2018-08-12T19:19:03.672Z,20.73
2018-08-12T19:21:32.448Z,20.69
2018-08-12T19:24:00.975Z,20.72
2018-08-12T19:26:29.536Z,20.67
2018-08-12T19:28:58.333Z,20.69
2018-08-12T19:31:26.839Z,20.74
2018-08-12T19:33:55.280Z,20.69
2018-08-12T19:36:23.795Z,20.53
2018-08-12T19:38:52.451Z,20.44
2018-08-12T19:41:21.054Z,20.43
2018-08-12T19:43:49.563Z,20.38
2018-08-12T19:46:18.117Z,20.26
2018-08-12T19:48:46.588Z,20.23
2018-08-12T19:51:15.065Z,20.14
2018-08-12T19:53:43.539Z,20.05
2018-08-12T19:56:11.996Z,19.97
2018-08-12T19:58:40.568Z,19.91
2018-08-12T20:01:09.084Z,19.88
2018-08-12T20:03:37.568Z,19.93
2018-08-12T20:06:06.140Z,19.89
2018-08-12T20:08:34.608Z,19.94
2018-08-12T20:11:03.096Z,19.93
2018-08-12T20:13:31.624Z,19.83
2018-08-12T20:16:00.163Z,19.82
2018-08-12T20:18:28.698Z,19.84
2018-08-12T20:20:57.253Z,19.77
2018-08-12T20:23:25.748Z,19.66
2018-08-12T20:25:54.303Z,19.57
2018-08-12T20:28:22.858Z,19.53
2018-08-12T20:30:51.348Z,19.49
2018-08-12T20:33:19.869Z,19.53
2018-08-12T20:35:48.499Z,19.56
2018-08-12T20:38:17.051Z,19.52
2018-08-12T20:40:45.512Z,19.55
2018-08-12T20:43:13.979Z,19.50
2018-08-12T20:45:42.528Z,19.44
2018-08-12T20:48:11.039Z,19.41
2018-08-12T20:50:39.537Z,19.41
2018-08-12T20:53:08.279Z,19.39
2018-08-12T20:55:36.735Z,19.38
2018-08-12T20:58:05.292Z,19.38
2018-08-12T21:00:34.384Z,19.34
2018-08-12T21:03:02.848Z,19.31
2018-08-12T21:05:31.325Z,19.30
2018-08-12T21:07:59.773Z,19.30
2018-08-12T21:10:28.818Z,19.34
2018-08-12T21:12:57.300Z,19.30
2018-08-12T21:15:25.815Z,19.36
2018-08-12T21:17:54.292Z,19.32
2018-08-12T21:20:22.916Z,19.30
2018-08-12T21:22:51.484Z,19.28
2018-08-12T21:25:19.964Z,19.24
2018-08-12T21:27:48.478Z,19.28
2018-08-12T21:30:16.996Z,19.34
2018-08-12T21:32:45.612Z,19.29
2018-08-12T21:35:14.277Z,19.30
2018-08-12T21:37:42.783Z,19.25
2018-08-12T21:40:11.237Z,19.17
2018-08-12T21:42:39.942Z,19.12
2018-08-12T21:45:08.438Z,19.10
2018-08-12T21:47:36.940Z,19.06
2018-08-12T21:50:05.516Z,18.99
2018-08-12T21:52:34.024Z,19.07
2018-08-12T21:55:02.528Z,19.14
2018-08-12T21:57:31.017Z,19.12
2018-08-12T21:59:59.515Z,19.10
2018-08-12T22:02:28.020Z,18.99
2018-08-12T22:04:56.493Z,18.92
2018-08-12T22:07:24.985Z,18.93
2018-08-12T22:09:53.557Z,18.88
2018-08-12T22:12:22.032Z,18.76
2018-08-12T22:14:50.684Z,18.72
2018-08-12T22:17:19.184Z,18.67
2018-08-12T22:19:47.740Z,18.58
2018-08-12T22:22:16.679Z,18.56
2018-08-12T22:24:45.180Z,18.51
2018-08-12T22:27:13.665Z,18.49
2018-08-12T22:29:42.202Z,18.51
2018-08-12T22:32:10.711Z,18.45
2018-08-12T22:34:39.214Z,18.55
2018-08-12T22:37:07.724Z,18.53
2018-08-12T22:39:36.277Z,18.47
2018-08-12T22:42:04.788Z,18.48
2018-08-12T22:44:33.300Z,18.39
2018-08-12T22:47:01.795Z,18.34
2018-08-12T22:49:30.340Z,18.34
2018-08-12T22:51:58.852Z,18.33
2018-08-12T22:54:27.351Z,18.29
2018-08-12T22:56:55.849Z,18.30
2018-08-12T22:59:24.361Z,18.27
2018-08-12T23:01:52.880Z,18.29
2018-08-12T23:04:21.426Z,18.23
2018-08-12T23:06:50.046Z,18.29
2018-08-12T23:09:18.519Z,18.18
2018-08-12T23:11:47.040Z,18.21
2018-08-12T23:14:15.496Z,18.13
2018-08-12T23:17:01.905Z,18.09
2018-08-12T23:19:30.627Z,18.07
2018-08-12T23:21:59.290Z,17.98
2018-08-12T23:24:27.751Z,17.96
2018-08-12T23:26:56.285Z,17.91
2018-08-12T23:29:24.820Z,17.95
2018-08-12T23:31:53.385Z,17.89
2018-08-12T23:34:21.865Z,17.81
2018-08-12T23:36:50.434Z,17.89
2018-08-12T23:39:18.895Z,17.82
2018-08-12T23:41:47.427Z,17.84
2018-08-12T23:44:15.927Z,17.83
2018-08-12T23:46:44.613Z,17.60
2018-08-12T23:49:13.120Z,17.84
2018-08-12T23:51:41.596Z,17.85
2018-08-12T23:54:10.104Z,17.80
2018-08-12T23:56:38.583Z,17.84
2018-08-12T23:59:07.105Z,17.81
